createdAt,value
2023-02-02T00:01:13.452Z,71.81
2023-02-02T00:03:40.253Z,72.03
2023-02-02T00:06:07.053Z,71.69
2023-02-02T00:08:35.932Z,71.13
2023-02-02T00:11:02.469Z,70.52
2023-02-02T00:13:28.928Z,70.52
2023-02-02T00:15:55.757Z,71.04
2023-02-02T00:18:22.235Z,70.64
2023-02-02T00:20:50.136Z,70.21
2023-02-02T00:23:17.396Z,70.51
2023-02-02T00:25:43.911Z,71.03
2023-02-02T00:28:10.668Z,71.61
2023-02-02T00:30:37.217Z,71.93
2023-02-02T00:33:03.882Z,72.46
2023-02-02T00:35:30.553Z,72.18
2023-02-02T00:37:57.032Z,72.42
2023-02-02T00:40:24.914Z,70.57
2023-02-02T00:42:51.556Z,71.28
2023-02-02T00:45:18.493Z,71.46
2023-02-02T00:47:47.154Z,72.61
2023-02-02T00:50:19.273Z,71.52
2023-02-02T00:52:47.124Z,71.44
2023-02-02T00:55:14.456Z,71.94
2023-02-02T00:57:41.328Z,71.83
2023-02-02T01:00:09.347Z,70.00
2023-02-02T01:02:36.158Z,69.12
2023-02-02T01:05:03.125Z,70.76
2023-02-02T01:07:29.756Z,71.26
2023-02-02T01:09:56.309Z,70.14
2023-02-02T01:12:22.919Z,71.87
2023-02-02T01:14:49.388Z,71.89
2023-02-02T01:17:15.903Z,72.22
2023-02-02T01:19:42.718Z,72.88
2023-02-02T01:22:09.868Z,73.02
2023-02-02T01:24:36.346Z,73.48
2023-02-02T01:27:02.855Z,73.45
2023-02-02T01:29:29.360Z,73.76
2023-02-02T01:31:55.854Z,74.11
2023-02-02T01:34:22.441Z,72.61
2023-02-02T01:36:49.047Z,73.39
2023-02-02T01:39:15.518Z,75.10
2023-02-02T01:41:42.286Z,76.75
2023-02-02T01:44:46.465Z,75.55
2023-02-02T01:47:13.457Z,74.84
2023-02-02T01:49:40.569Z,74.28
2023-02-02T01:52:10.005Z,75.68
2023-02-02T01:54:45.315Z,74.18
2023-02-02T01:57:42.442Z,75.53
2023-02-02T02:00:13.249Z,74.09
2023-02-02T02:02:40.446Z,73.93
2023-02-02T02:05:08.147Z,72.79
2023-02-02T02:07:34.859Z,73.77
2023-02-02T02:10:01.396Z,73.42
2023-02-02T02:12:27.833Z,74.53
2023-02-02T02:15:13.046Z,74.03
2023-02-02T02:18:04.521Z,74.83
2023-02-02T02:21:23.982Z,75.64
2023-02-02T02:24:53.801Z,75.64
2023-02-02T02:27:34.526Z,76.70
2023-02-02T02:30:09.950Z,73.37
2023-02-02T02:32:42.556Z,75.24
2023-02-02T02:35:17.109Z,75.37
2023-02-02T02:38:20.875Z,76.90
2023-02-02T02:41:09.106Z,74.90
2023-02-02T02:43:41.594Z,76.07
2023-02-02T02:46:09.481Z,75.53
2023-02-02T02:48:36.033Z,76.06
2023-02-02T02:51:47.804Z,76.27
2023-02-02T02:54:31.594Z,75.57
2023-02-02T02:57:06.455Z,76.07
2023-02-02T02:59:45.031Z,74.74
2023-02-02T03:02:16.947Z,74.88
2023-02-02T03:05:03.767Z,75.88
2023-02-02T03:07:37.191Z,75.50
2023-02-02T03:10:05.666Z,76.39
2023-02-02T03:12:32.202Z,76.93
2023-02-02T03:14:58.769Z,76.40
2023-02-02T03:17:27.706Z,77.71
2023-02-02T03:19:54.156Z,75.77
2023-02-02T03:22:20.861Z,76.62
2023-02-02T03:24:47.404Z,77.44
2023-02-02T03:27:14.157Z,77.38
2023-02-02T03:29:43.059Z,75.58
2023-02-02T03:32:09.798Z,75.13
2023-02-02T03:34:36.828Z,76.12
2023-02-02T03:37:03.377Z,76.00
2023-02-02T03:39:29.959Z,76.70
2023-02-02T03:41:56.479Z,77.58
2023-02-02T03:44:22.986Z,76.57
2023-02-02T03:46:53.352Z,75.94
2023-02-02T03:49:20.020Z,76.72
2023-02-02T03:51:46.645Z,78.06
2023-02-02T03:54:13.826Z,78.70
2023-02-02T03:56:40.375Z,78.85
2023-02-02T03:59:06.926Z,78.95
2023-02-02T04:01:33.616Z,79.42
2023-02-02T04:04:00.199Z,78.75
2023-02-02T04:06:26.935Z,78.68
2023-02-02T04:08:53.483Z,79.30
2023-02-02T04:11:20.141Z,79.19
2023-02-02T04:13:46.652Z,78.84
2023-02-02T04:16:13.384Z,76.76
2023-02-02T04:18:40.379Z,77.97
2023-02-02T04:21:08.528Z,77.32
2023-02-02T04:23:35.113Z,78.08
2023-02-02T04:26:01.940Z,76.45
2023-02-02T04:28:28.778Z,78.21
2023-02-02T04:30:56.338Z,75.67
2023-02-02T04:33:27.105Z,76.37
2023-02-02T04:35:53.903Z,75.28
2023-02-02T04:38:20.519Z,74.87
2023-02-02T04:40:48.271Z,76.26
2023-02-02T04:43:15.279Z,76.43
2023-02-02T04:45:42.445Z,76.61
2023-02-02T04:48:09.740Z,75.64
2023-02-02T04:50:36.518Z,74.81
2023-02-02T04:53:04.153Z,75.42
2023-02-02T04:55:30.883Z,77.07
2023-02-02T04:57:57.442Z,77.86
2023-02-02T05:00:23.999Z,77.90
2023-02-02T05:02:50.581Z,76.56
2023-02-02T05:05:17.154Z,76.44
2023-02-02T05:07:43.720Z,76.37
2023-02-02T05:10:11.362Z,76.41
2023-02-02T05:12:37.936Z,75.72
2023-02-02T05:15:05.618Z,74.73
2023-02-02T05:17:32.978Z,73.60
2023-02-02T05:19:59.564Z,76.69
2023-02-02T05:22:26.914Z,77.63
2023-02-02T05:24:53.425Z,76.78
2023-02-02T05:27:20.818Z,76.40
2023-02-02T05:29:48.224Z,78.54
2023-02-02T05:32:14.729Z,75.63
2023-02-02T05:34:41.567Z,76.66
2023-02-02T05:37:08.205Z,77.26
2023-02-02T05:39:34.731Z,78.77
2023-02-02T05:42:01.333Z,78.56
2023-02-02T05:44:27.879Z,78.54
2023-02-02T05:46:54.606Z,80.07
2023-02-02T05:49:21.322Z,80.30
2023-02-02T05:51:49.566Z,78.50
2023-02-02T05:54:20.277Z,78.34
2023-02-02T05:56:51.819Z,78.81
2023-02-02T05:59:19.039Z,80.38
2023-02-02T06:01:46.408Z,81.33
2023-02-02T06:04:13.321Z,80.73
2023-02-02T06:06:40.465Z,81.16
2023-02-02T06:09:07.889Z,80.46
2023-02-02T06:11:35.102Z,78.94
2023-02-02T06:14:01.890Z,79.87
2023-02-02T06:16:28.537Z,80.07
2023-02-02T06:18:55.178Z,80.29
2023-02-02T06:21:24.441Z,81.11
2023-02-02T06:23:51.762Z,81.22
2023-02-02T06:26:19.015Z,80.87
2023-02-02T06:28:49.972Z,79.91
2023-02-02T06:31:19.268Z,79.57
2023-02-02T06:33:52.470Z,80.18
2023-02-02T06:36:18.994Z,80.62
2023-02-02T06:38:51.870Z,81.91
2023-02-02T06:41:20.345Z,81.83
2023-02-02T06:43:47.772Z,81.33
2023-02-02T06:46:14.650Z,81.33
2023-02-02T06:48:41.332Z,79.85
2023-02-02T06:51:08.490Z,79.95
2023-02-02T06:53:35.397Z,79.67
2023-02-02T06:56:04.816Z,81.35
2023-02-02T06:58:32.088Z,81.43
2023-02-02T07:01:07.364Z,80.91
2023-02-02T07:03:34.039Z,79.77
2023-02-02T07:06:13.822Z,80.48
2023-02-02T07:08:40.373Z,80.05
2023-02-02T07:11:12.016Z,81.15
2023-02-02T07:13:41.286Z,80.28
2023-02-02T07:16:12.926Z,79.79
2023-02-02T07:18:40.338Z,81.76
2023-02-02T07:21:06.981Z,80.98
2023-02-02T07:23:34.041Z,81.50
2023-02-02T07:26:02.377Z,82.82
2023-02-02T07:28:28.997Z,81.35
2023-02-02T07:30:55.674Z,81.43
2023-02-02T07:33:22.209Z,80.48
2023-02-02T07:35:48.751Z,80.35
2023-02-02T07:38:15.399Z,80.55
2023-02-02T07:40:42.031Z,81.38
2023-02-02T07:43:09.321Z,80.97
2023-02-02T07:45:36.363Z,80.53
2023-02-02T07:48:03.693Z,80.98
2023-02-02T07:50:31.142Z,82.18
2023-02-02T07:52:58.976Z,81.46
2023-02-02T07:55:25.544Z,80.94
2023-02-02T07:57:54.302Z,81.20
2023-02-02T08:00:21.609Z,81.52
2023-02-02T08:02:51.506Z,82.78
2023-02-02T08:05:18.000Z,81.62
2023-02-02T08:07:48.319Z,80.81
2023-02-02T08:10:15.241Z,81.39
2023-02-02T08:12:41.764Z,80.95
2023-02-02T08:15:08.886Z,82.00
2023-02-02T08:17:35.456Z,82.60
2023-02-02T08:20:01.910Z,81.84
2023-02-02T08:22:28.519Z,81.25
2023-02-02T08:24:55.037Z,81.80
2023-02-02T08:27:21.871Z,81.95
2023-02-02T08:29:48.413Z,82.33
2023-02-02T08:32:15.007Z,81.88
2023-02-02T08:34:41.575Z,81.40
2023-02-02T08:37:08.205Z,80.67
2023-02-02T08:39:35.065Z,81.09
2023-02-02T08:42:01.579Z,80.92
2023-02-02T08:44:42.886Z,81.13
2023-02-02T08:47:14.638Z,81.82
2023-02-02T08:49:42.437Z,81.80
2023-02-02T08:52:08.977Z,80.96
2023-02-02T08:54:35.785Z,80.33
2023-02-02T08:57:02.284Z,79.74
2023-02-02T08:59:28.774Z,82.13
2023-02-02T09:01:55.780Z,81.06
2023-02-02T09:04:22.359Z,81.01
2023-02-02T09:06:48.881Z,82.12
2023-02-02T09:09:16.361Z,82.97
2023-02-02T09:11:43.794Z,82.64
2023-02-02T09:14:12.520Z,82.00
2023-02-02T09:16:39.216Z,82.10
2023-02-02T09:19:06.321Z,81.49
2023-02-02T09:21:37.175Z,82.56
2023-02-02T09:24:12.414Z,81.39
2023-02-02T09:26:40.484Z,81.84
2023-02-02T09:29:08.520Z,81.96
2023-02-02T09:31:37.380Z,81.78
2023-02-02T09:34:05.733Z,82.14
2023-02-02T09:36:32.401Z,81.44
2023-02-02T09:38:59.346Z,79.83
2023-02-02T09:41:31.909Z,79.93
2023-02-02T09:44:16.564Z,81.23
2023-02-02T09:47:01.818Z,78.51
2023-02-02T09:49:55.201Z,80.13
2023-02-02T09:53:00.825Z,79.85
2023-02-02T09:55:35.634Z,80.71
2023-02-02T09:58:05.099Z,80.81
2023-02-02T10:00:34.609Z,81.78
2023-02-02T10:03:05.186Z,82.57
2023-02-02T10:05:44.000Z,81.33
2023-02-02T10:08:20.582Z,82.13
2023-02-02T10:10:55.847Z,82.18
2023-02-02T10:13:29.163Z,79.96
2023-02-02T10:16:11.213Z,78.56
2023-02-02T10:18:50.081Z,80.10
2023-02-02T10:21:35.557Z,79.84
2023-02-02T10:24:03.459Z,80.05
2023-02-02T10:26:43.920Z,78.75
2023-02-02T10:29:16.674Z,80.60
2023-02-02T10:32:09.741Z,80.78
2023-02-02T10:35:13.157Z,79.08
2023-02-02T10:37:58.532Z,80.60
2023-02-02T10:40:42.786Z,81.55
2023-02-02T10:43:34.221Z,80.34
2023-02-02T10:46:02.154Z,81.21
2023-02-02T10:48:35.833Z,81.99
2023-02-02T10:51:11.272Z,80.82
2023-02-02T10:53:37.956Z,81.04
2023-02-02T10:56:08.052Z,80.98
2023-02-02T10:58:41.343Z,82.68
2023-02-02T11:01:11.537Z,82.12
2023-02-02T11:03:40.121Z,80.25
2023-02-02T11:06:26.827Z,80.69
2023-02-02T11:08:58.170Z,80.78
2023-02-02T11:11:40.492Z,80.71
2023-02-02T11:14:10.273Z,81.17
2023-02-02T11:16:43.194Z,82.34
2023-02-02T11:19:22.651Z,81.43
2023-02-02T11:21:51.459Z,81.84
2023-02-02T11:24:23.576Z,82.26
2023-02-02T11:27:02.412Z,82.03
2023-02-02T11:29:32.607Z,81.81
2023-02-02T11:32:18.336Z,81.35
2023-02-02T11:34:44.910Z,80.67
2023-02-02T11:37:20.660Z,81.34
2023-02-02T11:39:47.669Z,82.06
2023-02-02T11:42:18.518Z,80.57
2023-02-02T11:44:54.986Z,80.99
2023-02-02T11:47:25.709Z,80.37
2023-02-02T11:49:54.366Z,80.86
2023-02-02T11:52:26.661Z,79.97
2023-02-02T11:54:57.397Z,82.15
2023-02-02T11:57:25.501Z,81.70
2023-02-02T12:00:16.576Z,81.78
2023-02-02T12:02:48.148Z,81.87
2023-02-02T12:05:20.950Z,81.45
2023-02-02T12:07:48.434Z,80.46
2023-02-02T12:10:20.016Z,82.14
2023-02-02T12:12:52.368Z,81.95
2023-02-02T12:15:23.835Z,81.75
2023-02-02T12:17:52.654Z,82.35
2023-02-02T12:20:31.641Z,82.01
2023-02-02T12:23:13.280Z,81.10
2023-02-02T12:25:59.191Z,80.27
2023-02-02T12:28:51.005Z,81.00
2023-02-02T12:31:36.822Z,81.10
2023-02-02T12:34:16.761Z,82.48
2023-02-02T12:37:03.497Z,81.55
2023-02-02T12:40:11.391Z,82.01
2023-02-02T12:43:15.725Z,82.08
2023-02-02T12:46:21.418Z,81.95
2023-02-02T12:49:12.310Z,81.37
2023-02-02T12:51:47.945Z,81.42
2023-02-02T12:54:45.859Z,81.53
2023-02-02T12:57:47.059Z,82.72
2023-02-02T13:00:38.446Z,82.33
2023-02-02T13:03:36.279Z,82.79
2023-02-02T13:06:21.898Z,81.94
2023-02-02T13:08:57.881Z,82.12
2023-02-02T13:11:56.133Z,83.00
2023-02-02T13:14:37.373Z,82.71
2023-02-02T13:17:51.379Z,82.25
2023-02-02T13:20:47.631Z,81.86
2023-02-02T13:23:39.004Z,81.90
2023-02-02T13:26:35.064Z,82.76
2023-02-02T13:29:21.955Z,81.39
2023-02-02T13:31:55.296Z,79.96
2023-02-02T13:34:29.338Z,79.38
2023-02-02T13:37:02.785Z,80.65
2023-02-02T13:39:47.807Z,82.33
2023-02-02T13:42:43.822Z,81.05
2023-02-02T13:45:31.372Z,80.58
2023-02-02T13:48:08.614Z,79.35
2023-02-02T13:50:44.204Z,79.90
2023-02-02T13:53:54.962Z,81.19
2023-02-02T13:56:40.478Z,80.58
2023-02-02T13:59:14.619Z,80.99
2023-02-02T14:01:46.697Z,81.08
2023-02-02T14:04:25.356Z,81.00
2023-02-02T14:06:57.490Z,81.74
2023-02-02T14:09:27.303Z,79.77
2023-02-02T14:12:03.112Z,82.16
2023-02-02T14:14:33.274Z,81.40
2023-02-02T14:17:13.927Z,81.14
2023-02-02T14:19:42.125Z,81.50
2023-02-02T14:22:08.848Z,82.82
2023-02-02T14:24:35.388Z,84.36
2023-02-02T14:27:28.410Z,83.94
2023-02-02T14:29:54.959Z,82.69
2023-02-02T14:32:30.794Z,83.85
2023-02-02T14:34:59.457Z,82.74
2023-02-02T14:37:29.002Z,81.86
2023-02-02T14:40:06.347Z,81.80
2023-02-02T14:43:25.258Z,80.53
2023-02-02T14:46:13.874Z,81.35
2023-02-02T14:48:42.291Z,82.38
2023-02-02T14:51:18.696Z,83.06
2023-02-02T14:53:51.091Z,82.30
2023-02-02T14:56:18.102Z,80.23
2023-02-02T14:58:46.801Z,82.11
2023-02-02T15:01:23.013Z,81.18
2023-02-02T15:04:17.837Z,81.44
2023-02-02T15:06:44.662Z,82.26
2023-02-02T15:09:20.451Z,82.42
2023-02-02T15:12:01.668Z,82.41
2023-02-02T15:14:34.336Z,82.53
2023-02-02T15:17:12.564Z,82.83
2023-02-02T15:19:42.283Z,81.53
2023-02-02T15:22:21.222Z,82.79
2023-02-02T15:24:48.556Z,83.02
2023-02-02T15:27:19.787Z,81.67
2023-02-02T15:29:49.719Z,81.91
2023-02-02T15:32:22.947Z,82.08
2023-02-02T15:34:53.194Z,82.97
2023-02-02T15:37:22.948Z,82.82
2023-02-02T15:39:52.849Z,82.78
2023-02-02T15:42:41.730Z,82.28
2023-02-02T15:45:29.067Z,84.30
2023-02-02T15:47:57.303Z,83.62
2023-02-02T15:50:23.978Z,84.16
2023-02-02T15:52:52.008Z,83.32
2023-02-02T15:55:23.645Z,83.19
2023-02-02T15:57:54.370Z,83.00
2023-02-02T16:00:38.114Z,82.59
2023-02-02T16:03:07.652Z,83.99
2023-02-02T16:05:37.195Z,84.26
2023-02-02T16:08:19.054Z,84.73
2023-02-02T16:10:48.157Z,84.20
2023-02-02T16:13:27.984Z,83.99
2023-02-02T16:15:56.973Z,84.56
2023-02-02T16:18:23.538Z,84.24
2023-02-02T16:20:51.500Z,82.44
2023-02-02T16:23:23.875Z,84.47
2023-02-02T16:25:52.672Z,84.06
2023-02-02T16:28:21.907Z,82.25
2023-02-02T16:30:48.800Z,83.75
2023-02-02T16:33:33.705Z,83.81
2023-02-02T16:36:00.709Z,83.49
2023-02-02T16:38:37.615Z,83.20
2023-02-02T16:41:14.229Z,83.63
2023-02-02T16:43:42.051Z,82.71
2023-02-02T16:46:15.344Z,82.64
2023-02-02T16:48:59.921Z,83.01
2023-02-02T16:51:33.943Z,83.72
2023-02-02T16:54:06.956Z,83.76
2023-02-02T16:56:36.545Z,84.20
2023-02-02T16:59:23.077Z,84.58
2023-02-02T17:01:52.667Z,83.76
2023-02-02T17:04:24.867Z,84.48
2023-02-02T17:06:53.410Z,84.62
2023-02-02T17:09:34.021Z,85.05
2023-02-02T17:12:16.790Z,84.31
2023-02-02T17:15:00.308Z,84.81
2023-02-02T17:17:27.550Z,84.68
2023-02-02T17:19:54.164Z,84.84
2023-02-02T17:22:23.149Z,83.98
2023-02-02T17:24:51.481Z,84.30
2023-02-02T17:27:27.085Z,84.93
2023-02-02T17:29:54.306Z,85.30
2023-02-02T17:32:21.023Z,85.86
2023-02-02T17:34:47.624Z,86.20
2023-02-02T17:37:14.213Z,85.38
2023-02-02T17:39:40.720Z,85.17
2023-02-02T17:42:21.016Z,84.47
2023-02-02T17:44:47.963Z,83.92
2023-02-02T17:47:14.555Z,82.76
2023-02-02T17:49:41.117Z,83.53
2023-02-02T17:52:09.972Z,83.44
2023-02-02T17:54:36.533Z,84.02
2023-02-02T17:57:03.420Z,83.14
2023-02-02T17:59:30.335Z,84.08
2023-02-02T18:01:57.837Z,83.86
2023-02-02T18:04:26.303Z,85.33
2023-02-02T18:06:52.898Z,85.25
2023-02-02T18:09:19.470Z,84.41
2023-02-02T18:11:48.281Z,84.17
2023-02-02T18:14:15.158Z,85.28
2023-02-02T18:16:41.731Z,85.34
2023-02-02T18:19:08.695Z,85.98
2023-02-02T18:21:35.449Z,85.32
2023-02-02T18:24:02.245Z,86.83
2023-02-02T18:26:28.768Z,86.45
2023-02-02T18:28:55.305Z,86.11
2023-02-02T18:31:24.025Z,85.63
2023-02-02T18:33:51.087Z,85.64
2023-02-02T18:36:20.619Z,86.06
2023-02-02T18:38:48.322Z,85.29
2023-02-02T18:41:16.512Z,86.26
2023-02-02T18:43:44.643Z,85.74
2023-02-02T18:46:16.425Z,83.63
2023-02-02T18:48:43.383Z,86.19
2023-02-02T18:51:18.753Z,85.92
2023-02-02T18:53:46.453Z,85.24
2023-02-02T18:56:14.696Z,85.62
2023-02-02T18:58:41.363Z,86.76
2023-02-02T19:01:17.071Z,86.70
2023-02-02T19:03:48.431Z,85.49
2023-02-02T19:06:33.837Z,84.81
2023-02-02T19:09:03.780Z,86.04
2023-02-02T19:11:49.532Z,83.87
2023-02-02T19:14:18.227Z,84.00
2023-02-02T19:16:46.992Z,84.54
2023-02-02T19:19:25.554Z,85.45
2023-02-02T19:21:55.965Z,84.28
2023-02-02T19:24:24.253Z,85.55
2023-02-02T19:26:50.931Z,83.35
2023-02-02T19:29:21.095Z,82.93
2023-02-02T19:32:00.651Z,83.39
2023-02-02T19:34:27.231Z,83.26
2023-02-02T19:36:53.867Z,84.64
2023-02-02T19:39:30.871Z,84.64
2023-02-02T19:41:59.816Z,83.60
2023-02-02T19:44:30.225Z,83.93
2023-02-02T19:46:57.601Z,84.22
2023-02-02T19:49:30.027Z,84.19
2023-02-02T19:51:58.497Z,85.06
2023-02-02T19:54:47.984Z,84.92
2023-02-02T19:57:22.873Z,84.77
2023-02-02T19:59:50.693Z,85.72
2023-02-02T20:02:54.401Z,85.33
2023-02-02T20:05:28.157Z,85.58
2023-02-02T20:08:19.169Z,83.61
2023-02-02T20:10:46.882Z,84.63
2023-02-02T20:13:26.040Z,83.02
2023-02-02T20:16:03.534Z,84.79
2023-02-02T20:18:39.017Z,84.48
2023-02-02T20:21:16.797Z,83.30
2023-02-02T20:23:45.823Z,83.76
2023-02-02T20:26:33.836Z,83.32
2023-02-02T20:29:22.375Z,82.37
2023-02-02T20:31:50.861Z,81.86
2023-02-02T20:34:23.426Z,81.02
2023-02-02T20:36:51.168Z,81.95
2023-02-02T20:39:36.098Z,81.78
2023-02-02T20:42:04.308Z,82.69
2023-02-02T20:44:33.082Z,82.75
2023-02-02T20:47:01.148Z,83.16
2023-02-02T20:49:31.651Z,83.71
2023-02-02T20:52:00.798Z,83.06
2023-02-02T20:54:27.484Z,83.59
2023-02-02T20:56:54.452Z,82.38
2023-02-02T20:59:21.090Z,82.31
2023-02-02T21:01:49.951Z,82.11
2023-02-02T21:04:17.640Z,82.27
2023-02-02T21:06:44.415Z,83.23
2023-02-02T21:09:11.616Z,81.53
2023-02-02T21:11:38.425Z,82.24
2023-02-02T21:14:05.420Z,82.85
2023-02-02T21:16:32.529Z,83.44
2023-02-02T21:19:01.732Z,82.42
2023-02-02T21:21:28.403Z,83.32
2023-02-02T21:23:56.245Z,81.87
2023-02-02T21:26:26.981Z,82.43
2023-02-02T21:28:53.605Z,82.66
2023-02-02T21:31:20.443Z,82.03
2023-02-02T21:33:48.550Z,82.46
2023-02-02T21:36:29.121Z,82.77
2023-02-02T21:39:11.554Z,81.79
2023-02-02T21:41:38.041Z,82.36
2023-02-02T21:44:12.626Z,82.40
2023-02-02T21:46:39.295Z,82.14
2023-02-02T21:49:13.610Z,82.13
2023-02-02T21:51:40.167Z,82.31
2023-02-02T21:54:24.596Z,81.90
2023-02-02T21:56:52.493Z,82.27
2023-02-02T21:59:21.700Z,82.58
2023-02-02T22:01:49.651Z,82.45
2023-02-02T22:04:20.864Z,82.69
2023-02-02T22:07:12.066Z,82.42
2023-02-02T22:09:40.119Z,81.97
2023-02-02T22:12:23.450Z,80.88
2023-02-02T22:14:52.225Z,80.24
2023-02-02T22:17:38.863Z,80.98
2023-02-02T22:20:30.148Z,81.34
2023-02-02T22:22:56.668Z,81.06
2023-02-02T22:25:33.343Z,80.80
2023-02-02T22:28:10.655Z,81.47
2023-02-02T22:30:39.987Z,80.86
2023-02-02T22:33:09.177Z,79.82
2023-02-02T22:35:35.764Z,79.27
2023-02-02T22:38:02.822Z,79.82
2023-02-02T22:40:29.721Z,80.06
2023-02-02T22:43:00.779Z,79.43
2023-02-02T22:45:27.324Z,78.97
2023-02-02T22:47:54.422Z,79.29
2023-02-02T22:50:23.376Z,80.08
2023-02-02T22:52:50.437Z,79.57
2023-02-02T22:55:17.439Z,78.31
2023-02-02T22:57:44.256Z,79.78
2023-02-02T23:00:17.016Z,78.68
2023-02-02T23:02:43.839Z,78.58
2023-02-02T23:05:12.693Z,78.35
2023-02-02T23:07:39.746Z,77.69
2023-02-02T23:10:07.503Z,77.54
2023-02-02T23:12:34.213Z,77.84
2023-02-02T23:15:01.042Z,77.52
2023-02-02T23:17:27.622Z,77.71
2023-02-02T23:19:54.394Z,77.81
2023-02-02T23:22:20.968Z,79.18
2023-02-02T23:24:47.568Z,77.58
2023-02-02T23:27:14.331Z,77.52
2023-02-02T23:29:40.849Z,77.78
2023-02-02T23:32:07.382Z,77.00
2023-02-02T23:34:33.942Z,77.34
2023-02-02T23:37:00.511Z,76.84
2023-02-02T23:39:27.101Z,77.11
2023-02-02T23:41:53.610Z,77.42
2023-02-02T23:44:20.275Z,77.16
2023-02-02T23:46:47.119Z,77.29
2023-02-02T23:49:13.746Z,78.17
2023-02-02T23:51:40.352Z,76.95
2023-02-02T23:54:06.954Z,76.87
2023-02-02T23:56:33.570Z,77.01
2023-02-02T23:59:00.037Z,77.23
